createdAt,value
2017-11-19T00:00:30.014Z,99.99
2017-11-19T00:01:30.007Z,99.99
2017-11-19T00:02:30.001Z,99.26
2017-11-19T00:03:30.030Z,99.16
2017-11-19T00:04:29.990Z,99.06
2017-11-19T00:05:29.983Z,99.63
2017-11-19T00:06:29.970Z,99.44
2017-11-19T00:07:29.966Z,98.97
2017-11-19T00:08:29.959Z,98.78
2017-11-19T00:09:29.951Z,98.30
2017-11-19T00:10:29.950Z,97.92
2017-11-19T00:11:29.937Z,97.17
2017-11-19T00:12:29.930Z,98.02
2017-11-19T00:13:29.922Z,97.83
2017-11-19T00:14:29.919Z,98.16
2017-11-19T00:15:29.909Z,98.02
2017-11-19T00:16:29.901Z,98.16
2017-11-19T00:17:29.895Z,98.78
2017-11-19T00:18:29.888Z,98.21
2017-11-19T00:19:29.877Z,98.97
2017-11-19T00:20:29.873Z,98.87
2017-11-19T00:21:29.865Z,98.68
2017-11-19T00:22:29.860Z,98.45
2017-11-19T00:23:29.850Z,98.59
2017-11-19T00:24:29.863Z,98.64
2017-11-19T00:25:29.837Z,98.54
2017-11-19T00:26:29.830Z,98.16
2017-11-19T00:27:29.821Z,98.16
2017-11-19T00:28:29.816Z,97.78
2017-11-19T00:29:29.806Z,98.26
2017-11-19T00:30:29.801Z,98.07
2017-11-19T00:31:29.797Z,98.26
2017-11-19T00:32:29.786Z,98.73
2017-11-19T00:33:29.777Z,98.54
2017-11-19T00:34:29.769Z,98.64
2017-11-19T00:35:29.763Z,98.92
2017-11-19T00:36:29.756Z,98.54
2017-11-19T00:37:29.750Z,98.92
2017-11-19T00:38:29.743Z,98.64
2017-11-19T00:39:29.735Z,98.64
2017-11-19T00:40:29.727Z,99.02
2017-11-19T00:41:29.719Z,98.73
2017-11-19T00:42:29.718Z,98.64
2017-11-19T00:43:29.704Z,98.64
2017-11-19T00:44:29.700Z,98.83
2017-11-19T00:45:29.691Z,98.73
2017-11-19T00:46:29.685Z,98.73
2017-11-19T00:47:29.676Z,98.64
2017-11-19T00:48:29.669Z,98.83
2017-11-19T00:49:29.662Z,98.83
2017-11-19T00:50:29.655Z,98.92
2017-11-19T00:51:29.648Z,98.54
2017-11-19T00:52:29.643Z,99.02
2017-11-19T00:53:29.633Z,98.83
2017-11-19T00:54:29.627Z,99.11
2017-11-19T00:55:29.619Z,99.40
2017-11-19T00:56:29.611Z,99.21
2017-11-19T00:57:29.605Z,99.30
2017-11-19T00:58:29.595Z,99.11
2017-11-19T00:59:29.591Z,99.02
2017-11-19T01:00:29.583Z,99.58
2017-11-19T01:01:29.577Z,99.21
2017-11-19T01:02:29.569Z,99.58
2017-11-19T01:03:29.566Z,99.21
2017-11-19T01:04:29.566Z,98.92
2017-11-19T01:05:29.549Z,99.30
2017-11-19T01:06:29.539Z,99.21
2017-11-19T01:07:29.533Z,99.30
2017-11-19T01:08:29.527Z,99.58
2017-11-19T01:09:29.531Z,99.30
2017-11-19T01:10:29.517Z,99.02
2017-11-19T01:11:29.506Z,99.02
2017-11-19T01:12:29.503Z,99.87
2017-11-19T01:13:29.494Z,99.40
2017-11-19T01:14:29.480Z,99.87
2017-11-19T01:15:29.476Z,99.49
2017-11-19T01:16:29.470Z,99.30
2017-11-19T01:17:29.462Z,99.97
2017-11-19T01:18:29.456Z,99.49
2017-11-19T01:19:29.455Z,99.40
2017-11-19T01:20:29.444Z,99.77
2017-11-19T01:21:29.440Z,99.99
2017-11-19T01:22:29.464Z,99.99
2017-11-19T01:23:29.423Z,99.99
2017-11-19T01:24:29.419Z,99.49
2017-11-19T01:25:29.409Z,99.68
2017-11-19T01:26:29.403Z,99.40
2017-11-19T01:27:29.395Z,99.40
2017-11-19T01:28:29.390Z,99.97
2017-11-19T01:29:29.385Z,99.97
2017-11-19T01:30:29.372Z,99.99
2017-11-19T01:31:29.364Z,99.97
2017-11-19T01:32:29.363Z,99.99
2017-11-19T01:33:29.358Z,99.99
2017-11-19T01:34:29.344Z,99.99
2017-11-19T01:35:29.340Z,99.99
2017-11-19T01:36:29.336Z,99.99
2017-11-19T01:37:29.335Z,99.99
2017-11-19T01:38:29.329Z,99.99
2017-11-19T01:39:29.314Z,99.99
2017-11-19T01:40:29.306Z,99.99
2017-11-19T01:41:29.298Z,99.99
2017-11-19T01:42:29.288Z,99.99
2017-11-19T01:43:29.285Z,99.99
2017-11-19T01:44:29.296Z,99.99
2017-11-19T01:45:29.286Z,99.99
2017-11-19T01:46:29.264Z,99.99
2017-11-19T01:47:29.258Z,99.99
2017-11-19T01:48:29.253Z,99.99
2017-11-19T01:49:29.245Z,99.99
2017-11-19T01:50:29.236Z,99.99
2017-11-19T01:51:29.228Z,99.99
2017-11-19T01:52:29.236Z,99.99
2017-11-19T01:53:29.217Z,99.99
2017-11-19T01:54:29.208Z,99.99
2017-11-19T01:55:29.204Z,99.99
2017-11-19T01:56:29.196Z,99.99
2017-11-19T01:57:29.192Z,99.99
2017-11-19T01:58:29.188Z,99.99
2017-11-19T01:59:29.176Z,99.99
2017-11-19T02:00:29.170Z,99.99
2017-11-19T02:01:29.177Z,99.99
2017-11-19T02:02:29.157Z,99.99
2017-11-19T02:03:29.147Z,99.99
2017-11-19T02:04:29.143Z,99.99
2017-11-19T02:05:29.143Z,99.99
2017-11-19T02:06:29.128Z,99.99
2017-11-19T02:07:29.125Z,99.99
2017-11-19T02:08:29.119Z,99.99
2017-11-19T02:09:29.112Z,99.99
2017-11-19T02:10:29.110Z,99.99
2017-11-19T02:11:29.117Z,99.99
2017-11-19T02:12:29.106Z,99.99
2017-11-19T02:13:29.086Z,99.99
2017-11-19T02:14:29.077Z,99.99
2017-11-19T02:15:29.073Z,99.99
2017-11-19T02:16:29.067Z,99.99
2017-11-19T02:17:29.050Z,99.99
2017-11-19T02:18:29.047Z,99.99
2017-11-19T02:19:29.106Z,99.99
2017-11-19T02:20:29.034Z,99.99
2017-11-19T02:21:29.036Z,99.99
2017-11-19T02:22:29.030Z,99.99
2017-11-19T02:23:29.022Z,99.99
2017-11-19T02:24:29.021Z,99.99
2017-11-19T02:25:29.022Z,99.99
2017-11-19T02:26:29.012Z,99.99
2017-11-19T02:27:28.996Z,99.99
2017-11-19T02:28:28.985Z,99.99
2017-11-19T02:29:28.983Z,99.99
2017-11-19T02:30:28.987Z,99.99
2017-11-19T02:31:28.968Z,99.99
2017-11-19T02:32:28.970Z,99.99
2017-11-19T02:33:28.958Z,99.99
2017-11-19T02:34:28.952Z,99.99
2017-11-19T02:35:28.945Z,99.99
2017-11-19T02:36:28.935Z,99.99
2017-11-19T02:37:28.937Z,99.99
2017-11-19T02:38:28.930Z,99.99
2017-11-19T02:39:28.919Z,99.99
2017-11-19T02:40:28.912Z,99.99
2017-11-19T02:41:28.906Z,99.99
2017-11-19T02:42:28.900Z,99.99
2017-11-19T02:43:28.895Z,99.99
2017-11-19T02:44:28.886Z,99.99
2017-11-19T02:45:28.887Z,99.99
2017-11-19T02:46:28.875Z,99.99
2017-11-19T02:47:28.868Z,99.99
2017-11-19T02:48:28.865Z,99.99
2017-11-19T02:49:28.857Z,99.99
2017-11-19T02:50:28.849Z,99.99
2017-11-19T02:51:28.843Z,99.99
2017-11-19T02:52:28.835Z,99.99
2017-11-19T02:53:28.835Z,99.99
2017-11-19T02:54:28.825Z,99.99
2017-11-19T02:55:28.824Z,99.99
2017-11-19T02:56:28.812Z,99.99
2017-11-19T02:57:28.807Z,99.99
2017-11-19T02:58:28.796Z,99.99
2017-11-19T02:59:28.791Z,99.99
2017-11-19T03:00:28.787Z,99.99
2017-11-19T03:01:28.781Z,99.99
2017-11-19T03:02:28.773Z,99.99
2017-11-19T03:03:28.767Z,99.99
2017-11-19T03:04:28.760Z,99.99
2017-11-19T03:05:28.752Z,99.99
2017-11-19T03:06:28.747Z,99.99
2017-11-19T03:07:28.740Z,99.99
2017-11-19T03:08:28.733Z,99.99
2017-11-19T03:09:28.729Z,99.99
2017-11-19T03:10:28.726Z,99.99
2017-11-19T03:11:28.718Z,99.99
2017-11-19T03:12:28.708Z,99.99
2017-11-19T03:13:28.710Z,99.99
2017-11-19T03:14:28.700Z,99.99
2017-11-19T03:15:28.689Z,99.99
2017-11-19T03:16:28.685Z,99.99
2017-11-19T03:17:28.681Z,99.99
2017-11-19T03:18:28.671Z,99.99
2017-11-19T03:19:28.666Z,99.99
2017-11-19T03:20:28.654Z,99.99
2017-11-19T03:21:28.651Z,99.99
2017-11-19T03:22:28.645Z,99.99
2017-11-19T03:23:28.642Z,99.99
2017-11-19T03:24:28.634Z,99.99
2017-11-19T03:25:28.627Z,99.99
2017-11-19T03:26:28.626Z,99.99
2017-11-19T03:27:28.613Z,99.99
2017-11-19T03:28:28.607Z,99.99
2017-11-19T03:29:28.636Z,99.99
2017-11-19T03:30:28.596Z,99.99
2017-11-19T03:31:28.596Z,99.99
2017-11-19T03:32:28.584Z,99.99
2017-11-19T03:33:28.588Z,99.99
2017-11-19T03:34:28.569Z,99.99
2017-11-19T03:35:28.561Z,99.99
2017-11-19T03:36:28.558Z,99.99
2017-11-19T03:37:28.550Z,99.99
2017-11-19T03:38:28.548Z,99.99
2017-11-19T03:39:28.536Z,99.99
2017-11-19T03:40:28.531Z,99.99
2017-11-19T03:41:28.526Z,99.99
2017-11-19T03:42:28.517Z,99.99
2017-11-19T03:43:28.511Z,99.99
2017-11-19T03:44:28.509Z,99.99
2017-11-19T03:45:28.498Z,99.99
2017-11-19T03:46:28.492Z,99.99
2017-11-19T03:47:28.486Z,99.99
2017-11-19T03:48:28.482Z,99.99
2017-11-19T03:49:28.471Z,99.99
2017-11-19T03:50:28.467Z,99.99
2017-11-19T03:51:28.462Z,99.99
2017-11-19T03:52:28.455Z,99.99
2017-11-19T03:53:28.447Z,99.99
2017-11-19T03:54:28.443Z,99.99
2017-11-19T03:55:28.430Z,99.99
2017-11-19T03:56:28.428Z,99.99
2017-11-19T03:57:28.424Z,99.99
2017-11-19T03:58:28.416Z,99.99
2017-11-19T03:59:28.409Z,99.99
2017-11-19T04:00:28.403Z,99.99
2017-11-19T04:01:28.400Z,99.99
2017-11-19T04:02:28.389Z,99.99
2017-11-19T04:03:28.383Z,99.99
2017-11-19T04:04:28.377Z,99.99
2017-11-19T04:05:28.370Z,99.99
2017-11-19T04:06:28.365Z,99.99
2017-11-19T04:07:28.358Z,99.99
2017-11-19T04:08:28.352Z,99.99
2017-11-19T04:09:28.346Z,99.99
2017-11-19T04:10:28.341Z,99.99
2017-11-19T04:11:28.331Z,99.99
2017-11-19T04:12:28.326Z,99.99
2017-11-19T04:13:28.318Z,99.99
2017-11-19T04:14:28.313Z,99.97
2017-11-19T04:15:28.305Z,99.40
2017-11-19T04:16:28.300Z,99.11
2017-11-19T04:17:28.293Z,98.26
2017-11-19T04:18:28.289Z,97.12
2017-11-19T04:19:28.278Z,96.74
2017-11-19T04:20:28.272Z,96.17
2017-11-19T04:21:28.264Z,96.36
2017-11-19T04:22:28.264Z,95.98
2017-11-19T04:23:28.253Z,95.98
2017-11-19T04:24:28.245Z,95.12
2017-11-19T04:25:28.241Z,95.41
2017-11-19T04:26:28.229Z,94.93
2017-11-19T04:27:28.225Z,95.79
2017-11-19T04:28:28.218Z,94.93
2017-11-19T04:29:28.213Z,95.79
2017-11-19T04:30:28.206Z,95.31
2017-11-19T04:31:28.198Z,95.22
2017-11-19T04:32:28.191Z,96.17
2017-11-19T04:33:28.189Z,96.55
2017-11-19T04:34:28.177Z,96.83
2017-11-19T04:35:28.169Z,96.74
2017-11-19T04:36:28.165Z,96.83
2017-11-19T04:37:28.159Z,96.93
2017-11-19T04:38:28.151Z,96.26
2017-11-19T04:39:28.145Z,96.64
2017-11-19T04:40:28.140Z,96.83
2017-11-19T04:41:28.136Z,95.98
2017-11-19T04:42:28.124Z,96.64
2017-11-19T04:43:28.120Z,96.26
2017-11-19T04:44:28.111Z,96.41
2017-11-19T04:45:28.106Z,96.17
2017-11-19T04:46:28.097Z,95.84
2017-11-19T04:47:28.092Z,96.74
2017-11-19T04:48:28.087Z,95.17
2017-11-19T04:49:28.083Z,95.07
2017-11-19T04:50:28.070Z,94.98
2017-11-19T04:51:28.066Z,95.46
2017-11-19T04:52:28.062Z,95.27
2017-11-19T04:53:28.055Z,95.65
2017-11-19T04:54:28.047Z,95.46
2017-11-19T04:55:28.038Z,95.27
2017-11-19T04:56:28.034Z,94.89
2017-11-19T04:57:28.027Z,95.51
2017-11-19T04:58:28.018Z,95.17
2017-11-19T04:59:28.013Z,95.07
2017-11-19T05:00:28.004Z,93.75
2017-11-19T05:01:28.004Z,94.60
2017-11-19T05:02:27.994Z,95.36
2017-11-19T05:03:27.985Z,94.42
2017-11-19T05:04:27.978Z,93.27
2017-11-19T05:05:27.976Z,94.23
2017-11-19T05:06:27.963Z,94.60
2017-11-19T05:07:27.960Z,93.84
2017-11-19T05:08:27.954Z,93.75
2017-11-19T05:09:27.947Z,94.03
2017-11-19T05:10:27.939Z,94.32
2017-11-19T05:11:27.947Z,94.70
2017-11-19T05:12:27.929Z,94.60
2017-11-19T05:13:27.926Z,94.51
2017-11-19T05:14:27.914Z,95.17
2017-11-19T05:15:27.911Z,94.79
2017-11-19T05:16:27.900Z,95.46
2017-11-19T05:17:27.892Z,95.07
2017-11-19T05:18:27.889Z,94.98
2017-11-19T05:19:27.885Z,94.60
2017-11-19T05:20:27.874Z,95.07
2017-11-19T05:21:27.865Z,95.46
2017-11-19T05:22:27.861Z,95.17
2017-11-19T05:23:27.856Z,95.17
2017-11-19T05:24:27.849Z,94.51
2017-11-19T05:25:27.843Z,94.51
2017-11-19T05:26:27.834Z,93.46
2017-11-19T05:27:27.828Z,93.65
2017-11-19T05:28:27.824Z,95.07
2017-11-19T05:29:27.821Z,93.56
2017-11-19T05:30:27.808Z,93.75
2017-11-19T05:31:27.804Z,94.42
2017-11-19T05:32:27.795Z,94.51
2017-11-19T05:33:27.788Z,94.32
2017-11-19T05:34:27.780Z,94.51
2017-11-19T05:35:27.775Z,94.42
2017-11-19T05:36:27.770Z,94.32
2017-11-19T05:37:27.759Z,94.32
2017-11-19T05:38:27.755Z,94.98
2017-11-19T05:39:27.746Z,94.98
2017-11-19T05:40:27.741Z,95.17
2017-11-19T05:41:27.736Z,94.98
2017-11-19T05:42:27.728Z,95.93
2017-11-19T05:43:27.719Z,95.84
2017-11-19T05:44:27.734Z,95.84
2017-11-19T05:45:27.712Z,95.74
2017-11-19T05:46:27.704Z,95.65
2017-11-19T05:47:27.696Z,95.17
2017-11-19T05:48:27.690Z,95.17
2017-11-19T05:49:27.681Z,95.17
2017-11-19T05:50:27.677Z,95.27
2017-11-19T05:51:27.668Z,95.55
2017-11-19T05:52:27.660Z,95.17
2017-11-19T05:53:27.655Z,95.36
2017-11-19T05:54:27.649Z,94.79
2017-11-19T05:55:27.640Z,95.93
2017-11-19T05:56:27.636Z,95.65
2017-11-19T05:57:27.627Z,95.79
2017-11-19T05:58:27.622Z,95.88
2017-11-19T05:59:27.614Z,96.45
2017-11-19T06:00:27.605Z,96.45
2017-11-19T06:01:27.600Z,96.55
2017-11-19T06:02:27.594Z,96.45
2017-11-19T06:03:27.586Z,96.45
2017-11-19T06:04:27.581Z,96.26
2017-11-19T06:05:27.576Z,96.17
2017-11-19T06:06:27.564Z,96.08
2017-11-19T06:07:27.564Z,96.17
2017-11-19T06:08:27.551Z,96.26
2017-11-19T06:09:27.548Z,95.88
2017-11-19T06:10:27.537Z,95.60
2017-11-19T06:11:27.532Z,95.60
2017-11-19T06:12:27.524Z,95.41
2017-11-19T06:13:27.530Z,95.60
2017-11-19T06:14:27.508Z,95.50
2017-11-19T06:15:27.513Z,94.74
2017-11-19T06:16:27.496Z,95.50
2017-11-19T06:17:27.493Z,94.84
2017-11-19T06:18:27.479Z,94.56
2017-11-19T06:19:27.473Z,94.27
2017-11-19T06:20:27.467Z,93.32
2017-11-19T06:21:27.482Z,94.13
2017-11-19T06:22:27.453Z,93.65
2017-11-19T06:23:27.446Z,93.84
2017-11-19T06:24:27.437Z,94.18
2017-11-19T06:25:27.432Z,93.84
2017-11-19T06:26:27.422Z,93.27
2017-11-19T06:27:27.416Z,93.13
2017-11-19T06:28:27.407Z,93.23
2017-11-19T06:29:27.413Z,93.04
2017-11-19T06:30:27.391Z,93.41
2017-11-19T06:31:27.382Z,93.41
2017-11-19T06:32:27.379Z,93.80
2017-11-19T06:33:27.371Z,93.13
2017-11-19T06:34:27.363Z,93.41
2017-11-19T06:35:27.354Z,93.32
2017-11-19T06:36:27.346Z,93.04
2017-11-19T06:37:27.341Z,93.23
2017-11-19T06:38:27.330Z,92.57
2017-11-19T06:39:27.327Z,92.47
2017-11-19T06:40:27.321Z,92.76
2017-11-19T06:41:27.309Z,92.52
2017-11-19T06:42:27.304Z,92.52
2017-11-19T06:43:27.295Z,92.90
2017-11-19T06:44:27.291Z,92.76
2017-11-19T06:45:27.283Z,93.41
2017-11-19T06:46:27.275Z,92.38
2017-11-19T06:47:27.265Z,92.23
2017-11-19T06:48:27.260Z,92.42
2017-11-19T06:49:27.253Z,92.23
2017-11-19T06:50:27.245Z,92.33
2017-11-19T06:51:27.233Z,91.66
2017-11-19T06:52:27.232Z,91.66
2017-11-19T06:53:27.251Z,91.38
2017-11-19T06:54:27.216Z,91.28
2017-11-19T06:55:27.211Z,92.04
2017-11-19T06:56:27.202Z,91.75
2017-11-19T06:57:27.196Z,91.66
2017-11-19T06:58:27.189Z,91.94
2017-11-19T06:59:27.181Z,92.52
2017-11-19T07:00:27.175Z,92.52
2017-11-19T07:01:27.172Z,92.61
2017-11-19T07:02:27.160Z,92.61
2017-11-19T07:03:27.158Z,93.32
2017-11-19T07:04:27.146Z,92.66
2017-11-19T07:05:27.139Z,92.38
2017-11-19T07:06:27.133Z,90.90
2017-11-19T07:07:27.125Z,91.47
2017-11-19T07:08:27.118Z,91.19
2017-11-19T07:09:27.112Z,91.56
2017-11-19T07:10:27.104Z,91.85
2017-11-19T07:11:27.097Z,91.85
2017-11-19T07:12:27.092Z,91.94
2017-11-19T07:13:27.083Z,91.94
2017-11-19T07:14:27.078Z,92.52
2017-11-19T07:15:27.073Z,92.52
2017-11-19T07:16:27.073Z,91.75
2017-11-19T07:17:27.058Z,91.56
2017-11-19T07:18:27.063Z,92.14
2017-11-19T07:19:27.048Z,92.42
2017-11-19T07:20:27.038Z,92.18
2017-11-19T07:21:27.032Z,92.23
2017-11-19T07:22:27.024Z,91.90
2017-11-19T07:23:27.015Z,91.75
2017-11-19T07:24:27.011Z,92.04
2017-11-19T07:25:27.004Z,92.14
2017-11-19T07:26:27.001Z,91.38
2017-11-19T07:27:26.989Z,91.47
2017-11-19T07:28:26.984Z,92.14
2017-11-19T07:29:26.980Z,92.94
2017-11-19T07:30:26.971Z,92.66
2017-11-19T07:31:26.966Z,93.41
2017-11-19T07:32:26.955Z,93.61
2017-11-19T07:33:26.948Z,93.41
2017-11-19T07:34:26.941Z,93.13
2017-11-19T07:35:26.941Z,94.08
2017-11-19T07:36:26.927Z,93.80
2017-11-19T07:37:26.922Z,93.99
2017-11-19T07:38:26.913Z,94.27
2017-11-19T07:39:26.909Z,94.08
2017-11-19T07:40:26.900Z,94.37
2017-11-19T07:41:26.901Z,94.08
2017-11-19T07:42:26.887Z,94.27
2017-11-19T07:43:26.880Z,94.08
2017-11-19T07:44:26.876Z,93.61
2017-11-19T07:45:26.866Z,94.18
2017-11-19T07:46:26.863Z,94.74
2017-11-19T07:47:26.853Z,94.56
2017-11-19T07:48:26.848Z,94.65
2017-11-19T07:49:26.840Z,94.18
2017-11-19T07:50:26.830Z,93.89
2017-11-19T07:51:26.828Z,94.46
2017-11-19T07:52:26.820Z,94.27
2017-11-19T07:53:26.815Z,94.56
2017-11-19T07:54:26.805Z,94.56
2017-11-19T07:55:26.801Z,93.80
2017-11-19T07:56:26.794Z,93.70
2017-11-19T07:57:26.787Z,93.51
2017-11-19T07:58:26.789Z,93.51
2017-11-19T07:59:26.777Z,93.99
2017-11-19T08:00:26.767Z,93.99
2017-11-19T08:01:26.764Z,94.08
2017-11-19T08:02:26.752Z,93.94
2017-11-19T08:03:26.744Z,93.51
2017-11-19T08:04:26.740Z,94.03
2017-11-19T08:05:26.731Z,93.46
2017-11-19T08:06:26.724Z,92.52
2017-11-19T08:07:26.717Z,92.71
2017-11-19T08:08:26.710Z,92.99
2017-11-19T08:09:26.707Z,92.80
2017-11-19T08:10:26.697Z,92.23
2017-11-19T08:11:26.689Z,92.90
2017-11-19T08:12:26.683Z,93.46
2017-11-19T08:13:26.679Z,92.80
2017-11-19T08:14:26.670Z,92.23
2017-11-19T08:15:26.662Z,91.85
2017-11-19T08:16:26.657Z,92.42
2017-11-19T08:17:26.650Z,92.23
2017-11-19T08:18:26.643Z,91.94
2017-11-19T08:19:26.640Z,92.04
2017-11-19T08:20:26.633Z,91.47
2017-11-19T08:21:26.623Z,92.23
2017-11-19T08:22:26.617Z,91.94
2017-11-19T08:23:26.610Z,91.56
2017-11-19T08:24:26.601Z,91.85
2017-11-19T08:25:26.597Z,91.94
2017-11-19T08:26:26.595Z,91.09
2017-11-19T08:27:26.580Z,91.28
2017-11-19T08:28:26.574Z,91.14
2017-11-19T08:29:26.565Z,90.33
2017-11-19T08:30:26.561Z,90.43
2017-11-19T08:31:26.553Z,89.76
2017-11-19T08:32:26.563Z,89.81
2017-11-19T08:33:26.542Z,90.66
2017-11-19T08:34:26.534Z,90.19
2017-11-19T08:35:26.526Z,90.85
2017-11-19T08:36:26.521Z,91.14
2017-11-19T08:37:26.513Z,91.33
2017-11-19T08:38:26.507Z,90.19
2017-11-19T08:39:26.499Z,90.00
2017-11-19T08:40:26.494Z,89.33
2017-11-19T08:41:26.493Z,89.05
2017-11-19T08:42:26.481Z,89.14
2017-11-19T08:43:26.480Z,89.24
2017-11-19T08:44:26.479Z,88.76
2017-11-19T08:45:26.459Z,88.57
2017-11-19T08:46:26.452Z,88.76
2017-11-19T08:47:26.446Z,88.95
2017-11-19T08:48:26.440Z,88.95
2017-11-19T08:49:26.435Z,88.76
2017-11-19T08:50:26.428Z,87.91
2017-11-19T08:51:26.419Z,88.48
2017-11-19T08:52:26.412Z,88.67
2017-11-19T08:53:26.406Z,88.76
2017-11-19T08:54:26.399Z,88.48
2017-11-19T08:55:26.391Z,88.86
2017-11-19T08:56:26.386Z,88.48
2017-11-19T08:57:26.379Z,89.62
2017-11-19T08:58:26.372Z,89.05
2017-11-19T08:59:26.368Z,89.05
2017-11-19T09:00:26.359Z,89.05
2017-11-19T09:01:26.352Z,89.24
2017-11-19T09:02:26.341Z,89.53
2017-11-19T09:03:26.336Z,89.05
2017-11-19T09:04:26.331Z,88.76
2017-11-19T09:05:26.325Z,89.43
2017-11-19T09:06:26.320Z,89.33
2017-11-19T09:07:26.310Z,88.76
2017-11-19T09:08:26.307Z,88.67
2017-11-19T09:09:26.297Z,89.05
2017-11-19T09:10:26.288Z,89.14
2017-11-19T09:11:26.285Z,89.33
2017-11-19T09:12:26.281Z,89.53
2017-11-19T09:13:26.278Z,88.76
2017-11-19T09:14:26.263Z,88.20
2017-11-19T09:15:26.256Z,88.57
2017-11-19T09:16:26.257Z,88.48
2017-11-19T09:17:26.242Z,87.43
2017-11-19T09:18:26.237Z,88.48
2017-11-19T09:19:26.229Z,88.29
2017-11-19T09:20:26.224Z,88.20
2017-11-19T09:21:26.216Z,87.53
2017-11-19T09:22:26.213Z,86.20
2017-11-19T09:23:26.203Z,87.34
2017-11-19T09:24:26.196Z,86.49
2017-11-19T09:25:26.193Z,87.34
2017-11-19T09:26:26.184Z,87.72
2017-11-19T09:27:26.182Z,87.91
2017-11-19T09:28:26.179Z,87.48
2017-11-19T09:29:26.165Z,88.29
2017-11-19T09:30:26.158Z,87.10
2017-11-19T09:31:26.150Z,87.57
2017-11-19T09:32:26.141Z,87.57
2017-11-19T09:33:26.136Z,87.10
2017-11-19T09:34:26.132Z,86.24
2017-11-19T09:35:26.122Z,86.72
2017-11-19T09:36:26.115Z,86.72
2017-11-19T09:37:26.108Z,86.24
2017-11-19T09:38:26.102Z,85.86
2017-11-19T09:39:26.092Z,86.05
2017-11-19T09:40:26.088Z,85.68
2017-11-19T09:41:26.082Z,85.58
2017-11-19T09:42:26.073Z,86.34
2017-11-19T09:43:26.067Z,86.15
2017-11-19T09:44:26.060Z,85.49
2017-11-19T09:45:26.052Z,84.82
2017-11-19T09:46:26.046Z,85.68
2017-11-19T09:47:26.039Z,85.49
2017-11-19T09:48:26.031Z,85.01
2017-11-19T09:49:26.027Z,85.20
2017-11-19T09:50:26.017Z,85.68
2017-11-19T09:51:26.012Z,85.39
2017-11-19T09:52:26.006Z,85.30
2017-11-19T09:53:25.994Z,85.01
2017-11-19T09:54:25.994Z,85.30
2017-11-19T09:55:25.985Z,84.82
2017-11-19T09:56:25.980Z,84.63
2017-11-19T09:57:25.976Z,84.53
2017-11-19T09:58:25.967Z,84.91
2017-11-19T09:59:25.961Z,84.34
2017-11-19T10:00:25.953Z,84.53
2017-11-19T10:01:25.947Z,84.34
2017-11-19T10:02:25.941Z,83.97
2017-11-19T10:03:25.935Z,83.78
2017-11-19T10:04:25.929Z,83.30
2017-11-19T10:05:25.922Z,83.68
2017-11-19T10:06:25.915Z,82.54
2017-11-19T10:07:25.910Z,82.96
2017-11-19T10:08:25.903Z,83.34
2017-11-19T10:09:25.897Z,82.58
2017-11-19T10:10:25.888Z,82.39
2017-11-19T10:11:25.883Z,82.10
2017-11-19T10:12:25.877Z,83.15
2017-11-19T10:13:25.872Z,82.49
2017-11-19T10:14:25.863Z,82.10
2017-11-19T10:15:25.857Z,82.39
2017-11-19T10:16:25.853Z,82.77
2017-11-19T10:17:25.847Z,82.39
2017-11-19T10:18:25.838Z,82.68
2017-11-19T10:19:25.836Z,83.06
2017-11-19T10:20:25.828Z,82.68
2017-11-19T10:21:25.822Z,82.29
2017-11-19T10:22:25.810Z,82.49
2017-11-19T10:23:25.818Z,83.15
2017-11-19T10:24:25.802Z,82.96
2017-11-19T10:25:25.798Z,83.06
2017-11-19T10:26:25.790Z,84.10
2017-11-19T10:27:25.782Z,83.72
2017-11-19T10:28:25.778Z,83.15
2017-11-19T10:29:25.774Z,83.25
2017-11-19T10:30:25.769Z,83.25
2017-11-19T10:31:25.759Z,82.49
2017-11-19T10:32:25.768Z,82.87
2017-11-19T10:33:25.748Z,82.68
2017-11-19T10:34:25.738Z,83.29
2017-11-19T10:35:25.740Z,82.71
2017-11-19T10:36:25.728Z,83.29
2017-11-19T10:37:25.721Z,81.86
2017-11-19T10:38:25.717Z,82.71
2017-11-19T10:39:25.711Z,81.38
2017-11-19T10:40:25.705Z,80.91
2017-11-19T10:41:25.700Z,81.10
2017-11-19T10:42:25.695Z,81.05
2017-11-19T10:43:25.686Z,80.38
2017-11-19T10:44:25.684Z,79.58
2017-11-19T10:45:25.673Z,79.49
2017-11-19T10:46:25.667Z,79.20
2017-11-19T10:47:25.663Z,79.49
2017-11-19T10:48:25.669Z,79.49
2017-11-19T10:49:25.651Z,79.58
2017-11-19T10:50:25.651Z,79.39
2017-11-19T10:51:25.639Z,79.77
2017-11-19T10:52:25.632Z,79.58
2017-11-19T10:53:25.627Z,79.62
2017-11-19T10:54:25.619Z,79.05
2017-11-19T10:55:25.615Z,79.62
2017-11-19T10:56:25.613Z,78.77
2017-11-19T10:57:25.604Z,77.81
2017-11-19T10:58:25.597Z,77.72
2017-11-19T10:59:25.593Z,78.86
2017-11-19T11:00:25.584Z,78.96
2017-11-19T11:01:25.581Z,78.48
2017-11-19T11:02:25.613Z,78.38
2017-11-19T11:03:25.568Z,77.68
2017-11-19T11:04:25.563Z,78.19
2017-11-19T11:05:25.557Z,78.77
2017-11-19T11:06:25.551Z,78.19
2017-11-19T11:07:25.546Z,78.48
2017-11-19T11:08:25.539Z,78.10
2017-11-19T11:09:25.533Z,78.00
2017-11-19T11:10:25.525Z,78.19
2017-11-19T11:11:25.520Z,78.63
2017-11-19T11:12:25.515Z,78.82
2017-11-19T11:13:25.508Z,78.82
2017-11-19T11:14:25.506Z,79.30
2017-11-19T11:15:25.500Z,79.39
2017-11-19T11:16:25.496Z,79.58
2017-11-19T11:17:25.485Z,79.96
2017-11-19T11:18:25.480Z,80.24
2017-11-19T11:19:25.481Z,80.53
2017-11-19T11:20:25.467Z,80.44
2017-11-19T11:21:25.461Z,80.21
2017-11-19T11:22:25.454Z,80.82
2017-11-19T11:23:25.448Z,81.54
2017-11-19T11:24:25.443Z,81.44
2017-11-19T11:25:25.438Z,81.73
2017-11-19T11:26:25.441Z,80.82
2017-11-19T11:27:25.424Z,81.06
2017-11-19T11:28:25.426Z,81.48
2017-11-19T11:29:25.415Z,81.29
2017-11-19T11:30:25.411Z,80.34
2017-11-19T11:31:25.402Z,80.63
2017-11-19T11:32:25.396Z,80.05
2017-11-19T11:33:25.390Z,80.44
2017-11-19T11:34:25.384Z,79.86
2017-11-19T11:35:25.379Z,80.34
2017-11-19T11:36:25.373Z,79.96
2017-11-19T11:37:25.367Z,79.68
2017-11-19T11:38:25.361Z,80.34
2017-11-19T11:39:25.355Z,80.34
2017-11-19T11:40:25.349Z,80.44
2017-11-19T11:41:25.344Z,80.44
2017-11-19T11:42:25.335Z,81.20
2017-11-19T11:43:25.331Z,80.15
2017-11-19T11:44:25.326Z,79.72
2017-11-19T11:45:25.320Z,79.52
2017-11-19T11:46:25.342Z,79.14
2017-11-19T11:47:25.308Z,78.86
2017-11-19T11:48:25.308Z,78.38
2017-11-19T11:49:25.308Z,78.29
2017-11-19T11:50:25.290Z,78.67
2017-11-19T11:51:25.287Z,78.38
2017-11-19T11:52:25.280Z,78.38
2017-11-19T11:53:25.277Z,79.24
2017-11-19T11:54:25.267Z,79.33
2017-11-19T11:55:25.261Z,79.20
2017-11-19T11:56:25.258Z,79.43
2017-11-19T11:57:25.254Z,79.91
2017-11-19T11:58:25.257Z,80.00
2017-11-19T11:59:25.241Z,80.00
2017-11-19T12:00:25.235Z,80.05
2017-11-19T12:01:25.229Z,80.34
2017-11-19T12:02:25.224Z,80.38
2017-11-19T12:03:25.217Z,80.29
2017-11-19T12:04:25.210Z,80.24
2017-11-19T12:05:25.208Z,80.19
2017-11-19T12:06:25.202Z,80.57
2017-11-19T12:07:25.195Z,80.66
2017-11-19T12:08:25.187Z,80.38
2017-11-19T12:09:25.183Z,80.47
2017-11-19T12:10:25.179Z,80.19
2017-11-19T12:11:25.173Z,80.19
2017-11-19T12:12:25.168Z,79.91
2017-11-19T12:13:25.161Z,80.47
2017-11-19T12:14:25.153Z,80.34
2017-11-19T12:15:25.156Z,80.57
2017-11-19T12:16:25.142Z,81.14
2017-11-19T12:17:25.141Z,80.47
2017-11-19T12:18:25.134Z,79.72
2017-11-19T12:19:25.125Z,79.86
2017-11-19T12:20:25.121Z,79.81
2017-11-19T12:21:25.116Z,79.81
2017-11-19T12:22:25.109Z,80.19
2017-11-19T12:23:25.104Z,80.38
2017-11-19T12:24:25.102Z,79.81
2017-11-19T12:25:25.094Z,79.72
2017-11-19T12:26:25.086Z,79.91
2017-11-19T12:27:25.081Z,80.19
2017-11-19T12:28:25.075Z,80.19
2017-11-19T12:29:25.071Z,79.52
2017-11-19T12:30:25.065Z,78.96
2017-11-19T12:31:25.059Z,79.81
2017-11-19T12:32:25.054Z,79.24
2017-11-19T12:33:25.050Z,79.62
2017-11-19T12:34:25.043Z,79.91
2017-11-19T12:35:25.036Z,79.33
2017-11-19T12:36:25.037Z,79.24
2017-11-19T12:37:25.031Z,78.96
2017-11-19T12:38:25.021Z,79.33
2017-11-19T12:39:25.017Z,79.05
2017-11-19T12:40:25.021Z,78.29
2017-11-19T12:41:25.004Z,77.72
2017-11-19T12:42:24.998Z,78.38
2017-11-19T12:43:24.990Z,78.82
2017-11-19T12:44:24.989Z,79.39
2017-11-19T12:45:24.984Z,79.86
2017-11-19T12:46:24.977Z,80.34
2017-11-19T12:47:24.973Z,80.53
2017-11-19T12:48:24.967Z,80.05
2017-11-19T12:49:24.960Z,79.68
2017-11-19T12:50:24.952Z,80.34
2017-11-19T12:51:24.947Z,81.38
2017-11-19T12:52:24.942Z,82.34